createdAt,value
2017-11-23T00:00:19.558Z,4.30
2017-11-23T00:02:20.605Z,4.83
2017-11-23T00:04:21.568Z,4.47
2017-11-23T00:06:22.528Z,3.50
2017-11-23T00:08:23.516Z,5.60
2017-11-23T00:10:25.301Z,5.10
2017-11-23T00:12:26.276Z,4.57
2017-11-23T00:14:27.329Z,4.73
2017-11-23T00:16:30.876Z,3.13
2017-11-23T00:18:31.942Z,4.50
2017-11-23T00:20:32.923Z,4.37
2017-11-23T00:22:33.901Z,3.57
2017-11-23T00:24:35.017Z,4.20
2017-11-23T00:26:35.984Z,4.80
2017-11-23T00:28:37.109Z,4.03
2017-11-23T00:30:38.193Z,4.73
2017-11-23T00:32:39.180Z,4.07
2017-11-23T00:34:40.872Z,4.40
2017-11-23T00:36:41.897Z,4.87
2017-11-23T00:38:42.928Z,4.53
2017-11-23T00:40:45.252Z,3.63
2017-11-23T00:42:46.366Z,3.63
2017-11-23T00:44:47.398Z,3.20
2017-11-23T00:46:48.380Z,4.77
2017-11-23T00:48:49.652Z,4.20
2017-11-23T00:50:52.374Z,3.90
2017-11-23T00:52:53.413Z,3.17
2017-11-23T00:54:54.402Z,4.40
2017-11-23T00:56:57.189Z,3.80
2017-11-23T00:58:58.217Z,3.57
2017-11-23T01:00:59.198Z,3.80
2017-11-23T01:03:00.154Z,3.23
2017-11-23T01:05:01.148Z,3.53
2017-11-23T01:07:02.187Z,3.83
2017-11-23T01:09:03.200Z,3.37
2017-11-23T01:11:04.297Z,3.50
2017-11-23T01:13:05.342Z,4.20
2017-11-23T01:15:06.317Z,4.17
2017-11-23T01:17:07.285Z,4.47
2017-11-23T01:19:08.297Z,3.30
2017-11-23T01:21:09.253Z,4.30
2017-11-23T01:23:10.225Z,3.63
2017-11-23T01:25:11.246Z,3.63
2017-11-23T01:27:12.292Z,3.30
2017-11-23T01:29:13.374Z,4.10
2017-11-23T01:31:14.475Z,3.50
2017-11-23T01:33:15.608Z,3.53
2017-11-23T01:35:16.653Z,3.07
2017-11-23T01:37:17.638Z,3.37
2017-11-23T01:39:18.654Z,3.63
2017-11-23T01:41:19.681Z,2.97
2017-11-23T01:43:20.638Z,3.87
2017-11-23T01:45:22.370Z,3.77
2017-11-23T01:47:23.342Z,3.30
2017-11-23T01:49:24.434Z,4.30
2017-11-23T01:51:25.581Z,3.30
2017-11-23T01:53:26.645Z,4.30
2017-11-23T01:55:27.696Z,4.10
2017-11-23T01:57:28.709Z,3.67
2017-11-23T01:59:29.723Z,4.40
2017-11-23T02:01:30.789Z,4.73
2017-11-23T02:03:31.762Z,4.00
2017-11-23T02:05:32.730Z,4.10
2017-11-23T02:07:33.696Z,3.30
2017-11-23T02:09:34.747Z,4.17
2017-11-23T02:11:35.752Z,4.63
2017-11-23T02:13:36.915Z,4.00
2017-11-23T02:15:37.955Z,4.03
2017-11-23T02:17:38.945Z,4.47
2017-11-23T02:19:39.917Z,3.97
2017-11-23T02:21:41.786Z,3.90
2017-11-23T02:23:42.846Z,3.43
2017-11-23T02:25:43.942Z,4.10
2017-11-23T02:27:44.953Z,3.57
2017-11-23T02:29:46.105Z,3.80
2017-11-23T02:31:47.095Z,3.90
2017-11-23T02:33:48.279Z,3.87
2017-11-23T02:35:49.264Z,3.97
2017-11-23T02:37:50.242Z,3.80
2017-11-23T02:39:51.431Z,4.23
2017-11-23T02:41:52.391Z,4.97
2017-11-23T02:43:53.373Z,3.90
2017-11-23T02:45:54.374Z,4.07
2017-11-23T02:47:55.395Z,3.67
2017-11-23T02:49:57.152Z,3.70
2017-11-23T02:51:58.265Z,4.10
2017-11-23T02:53:59.361Z,4.43
2017-11-23T02:56:00.350Z,3.33
2017-11-23T02:58:01.562Z,3.50
2017-11-23T03:00:02.729Z,3.57
2017-11-23T03:02:03.691Z,3.47
2017-11-23T03:04:04.673Z,3.97
2017-11-23T03:06:05.654Z,3.70
2017-11-23T03:08:06.669Z,4.03
2017-11-23T03:10:07.628Z,4.00
2017-11-23T03:12:08.622Z,3.60
2017-11-23T03:14:09.614Z,3.90
2017-11-23T03:16:10.738Z,4.23
2017-11-23T03:18:11.973Z,4.13
2017-11-23T03:20:13.015Z,3.40
2017-11-23T03:22:14.032Z,3.50
2017-11-23T03:24:15.026Z,4.33
2017-11-23T03:26:16.005Z,3.97
2017-11-23T03:28:17.017Z,3.30
2017-11-23T03:30:17.982Z,4.20
2017-11-23T03:32:19.013Z,3.90
2017-11-23T03:34:20.022Z,4.40
2017-11-23T03:36:21.018Z,3.70
2017-11-23T03:38:22.129Z,4.03
2017-11-23T03:40:23.151Z,3.90
2017-11-23T03:42:24.893Z,3.67
2017-11-23T03:44:26.067Z,3.97
2017-11-23T03:46:27.811Z,3.13
2017-11-23T03:48:28.854Z,3.63
2017-11-23T03:50:29.889Z,3.90
2017-11-23T03:52:31.197Z,3.40
2017-11-23T03:54:32.458Z,4.47
2017-11-23T03:56:33.471Z,4.00
2017-11-23T03:58:34.484Z,3.70
2017-11-23T04:00:35.544Z,4.13
2017-11-23T04:05:15.779Z,4.40
2017-11-23T04:07:16.884Z,4.67
2017-11-23T04:09:18.249Z,4.17
2017-11-23T04:16:03.801Z,4.93
2017-11-23T04:18:11.664Z,4.03
2017-11-23T04:20:15.084Z,4.07
2017-11-23T04:22:16.188Z,4.00
2017-11-23T04:24:17.445Z,4.47
2017-11-23T04:28:39.213Z,4.00
2017-11-23T04:30:40.222Z,4.53
2017-11-23T04:32:41.196Z,3.77
2017-11-23T04:34:42.247Z,3.57
2017-11-23T04:36:43.285Z,4.07
2017-11-23T04:38:44.307Z,3.90
2017-11-23T04:40:45.304Z,3.60
2017-11-23T04:42:46.399Z,4.00
2017-11-23T04:44:47.449Z,4.20
2017-11-23T04:46:48.421Z,4.50
2017-11-23T04:48:49.449Z,3.83
2017-11-23T04:50:50.424Z,3.80
2017-11-23T04:52:51.508Z,3.97
2017-11-23T04:54:52.510Z,4.00
2017-11-23T04:56:54.235Z,3.10
2017-11-23T04:58:55.532Z,3.77
2017-11-23T05:00:56.650Z,4.33
2017-11-23T05:02:57.622Z,4.03
2017-11-23T05:04:58.618Z,4.90
2017-11-23T05:06:59.602Z,4.37
2017-11-23T05:09:00.598Z,5.03
2017-11-23T05:11:02.664Z,3.77
2017-11-23T05:13:03.650Z,5.00
2017-11-23T05:15:04.848Z,4.10
2017-11-23T05:17:05.815Z,4.00
2017-11-23T05:19:06.790Z,4.57
2017-11-23T05:21:08.508Z,4.50
2017-11-23T05:23:09.643Z,4.67
2017-11-23T05:25:10.642Z,5.10
2017-11-23T05:27:11.609Z,5.23
2017-11-23T05:29:12.645Z,5.43
2017-11-23T05:31:13.631Z,4.50
2017-11-23T05:33:14.694Z,4.77
2017-11-23T05:35:15.684Z,4.50
2017-11-23T05:37:16.709Z,4.70
2017-11-23T05:39:17.700Z,5.57
2017-11-23T05:41:18.854Z,4.60
2017-11-23T05:43:19.826Z,4.50
2017-11-23T05:45:20.838Z,4.20
2017-11-23T05:47:21.849Z,4.20
2017-11-23T05:49:22.853Z,5.47
2017-11-23T05:51:23.815Z,5.60
2017-11-23T05:53:24.772Z,5.53
2017-11-23T05:55:25.773Z,5.23
2017-11-23T05:57:27.494Z,4.20
2017-11-23T05:59:28.717Z,4.10
2017-11-23T06:01:29.698Z,4.97
2017-11-23T06:03:30.702Z,4.97
2017-11-23T06:05:31.704Z,5.30
2017-11-23T06:07:32.714Z,4.87
2017-11-23T06:09:33.994Z,5.80
2017-11-23T06:11:35.062Z,5.20
2017-11-23T06:13:36.038Z,6.10
2017-11-23T06:15:37.139Z,5.80
2017-11-23T06:17:38.365Z,4.83
2017-11-23T06:19:39.339Z,5.10
2017-11-23T06:21:40.327Z,5.20
2017-11-23T06:23:42.165Z,5.63
2017-11-23T06:25:43.377Z,5.17
2017-11-23T06:27:44.433Z,5.30
2017-11-23T06:29:45.462Z,5.17
2017-11-23T06:31:47.597Z,4.93
2017-11-23T06:33:48.577Z,6.10
2017-11-23T06:35:49.565Z,4.90
2017-11-23T06:37:50.636Z,5.83
2017-11-23T06:39:51.609Z,5.67
2017-11-23T06:41:52.573Z,6.20
2017-11-23T06:43:55.471Z,5.83
2017-11-23T06:45:56.561Z,6.40
2017-11-23T06:47:57.513Z,5.83
2017-11-23T06:49:58.504Z,5.13
2017-11-23T06:51:59.675Z,6.27
2017-11-23T06:54:00.885Z,4.93
2017-11-23T06:56:02.297Z,5.97
2017-11-23T06:58:03.386Z,5.80
2017-11-23T07:00:05.164Z,5.73
2017-11-23T07:02:06.159Z,5.30
2017-11-23T07:04:07.213Z,5.17
2017-11-23T07:06:08.231Z,5.33
2017-11-23T07:08:09.275Z,5.90
2017-11-23T07:10:10.354Z,4.17
2017-11-23T07:12:11.373Z,5.70
2017-11-23T07:14:12.400Z,6.30
2017-11-23T07:16:13.670Z,5.50
2017-11-23T07:18:14.685Z,6.30
2017-11-23T07:20:16.534Z,7.33
2017-11-23T07:22:17.516Z,5.67
2017-11-23T07:24:18.487Z,6.20
2017-11-23T07:26:19.480Z,6.60
2017-11-23T07:28:21.293Z,5.27
2017-11-23T07:30:22.345Z,6.20
2017-11-23T07:32:23.326Z,6.30
2017-11-23T07:34:24.401Z,7.10
2017-11-23T07:36:25.442Z,6.43
2017-11-23T07:38:26.543Z,6.10
2017-11-23T07:40:27.594Z,4.90
2017-11-23T07:42:28.686Z,5.80
2017-11-23T07:44:30.754Z,6.07
2017-11-23T07:46:32.165Z,6.63
2017-11-23T07:48:33.314Z,6.27
2017-11-23T07:50:34.424Z,6.80
2017-11-23T07:52:35.497Z,6.20
2017-11-23T07:54:36.539Z,6.47
2017-11-23T07:56:37.902Z,7.37
2017-11-23T07:58:39.662Z,6.80
2017-11-23T08:00:41.135Z,7.07
2017-11-23T08:02:42.153Z,7.50
2017-11-23T08:04:43.189Z,5.60
2017-11-23T08:06:44.330Z,6.97
2017-11-23T08:08:45.403Z,5.60
2017-11-23T08:10:47.500Z,5.93
2017-11-23T08:12:48.597Z,6.57
2017-11-23T08:14:49.669Z,5.53
2017-11-23T08:16:50.681Z,6.23
2017-11-23T08:18:51.665Z,6.40
2017-11-23T08:20:52.699Z,6.40
2017-11-23T08:22:54.448Z,5.53
2017-11-23T08:24:55.422Z,6.23
2017-11-23T08:26:57.222Z,4.90
2017-11-23T08:28:58.246Z,4.83
2017-11-23T08:30:59.540Z,6.83
2017-11-23T08:33:01.445Z,5.53
2017-11-23T08:35:04.363Z,6.67
2017-11-23T08:37:05.508Z,7.30
2017-11-23T08:39:06.525Z,6.50
2017-11-23T08:41:08.258Z,4.93
2017-11-23T08:43:09.292Z,6.80
2017-11-23T08:45:10.281Z,5.07
2017-11-23T08:47:12.628Z,7.23
2017-11-23T08:49:15.756Z,6.50
2017-11-23T08:51:44.318Z,5.93
2017-11-23T08:58:55.214Z,6.23
2017-11-23T09:00:56.202Z,7.20
2017-11-23T09:02:57.193Z,4.60
2017-11-23T09:04:58.188Z,4.60
2017-11-23T09:06:59.201Z,6.47
2017-11-23T09:09:00.232Z,6.23
2017-11-23T09:11:01.947Z,6.50
2017-11-23T09:13:02.941Z,5.60
2017-11-23T09:15:06.907Z,6.40
2017-11-23T09:17:07.907Z,5.83
2017-11-23T09:19:12.927Z,6.80
2017-11-23T09:21:14.013Z,5.67
2017-11-23T09:23:19.153Z,5.20
2017-11-23T09:27:58.139Z,4.80
2017-11-23T09:29:59.201Z,5.67
2017-11-23T09:32:00.304Z,5.30
2017-11-23T09:34:01.274Z,6.10
2017-11-23T09:36:02.307Z,5.90
2017-11-23T09:38:03.320Z,5.57
2017-11-23T09:40:04.555Z,5.40
2017-11-23T09:42:05.561Z,5.60
2017-11-23T09:44:07.703Z,5.20
2017-11-23T09:46:08.744Z,5.30
2017-11-23T09:48:10.003Z,5.53
2017-11-23T09:50:12.166Z,5.80
2017-11-23T09:52:13.231Z,5.67
2017-11-23T09:54:14.226Z,5.50
2017-11-23T09:56:15.347Z,3.80
2017-11-23T09:58:17.213Z,5.50
2017-11-23T10:00:18.242Z,5.50
2017-11-23T10:02:19.660Z,5.30
2017-11-23T10:04:20.897Z,5.20
2017-11-23T10:06:22.724Z,4.90
2017-11-23T10:08:23.777Z,4.60
2017-11-23T10:10:27.651Z,4.70
2017-11-23T10:12:29.570Z,5.40
2017-11-23T10:14:36.637Z,4.90
2017-11-23T10:16:38.928Z,4.93
2017-11-23T10:18:41.490Z,4.87
2017-11-23T10:20:43.764Z,4.97
2017-11-23T10:22:44.897Z,4.23
2017-11-23T10:24:46.405Z,4.67
2017-11-23T10:26:47.534Z,4.03
2017-11-23T10:28:48.524Z,3.83
2017-11-23T10:30:49.584Z,5.40
2017-11-23T10:32:57.712Z,4.50
2017-11-23T10:34:58.851Z,5.00
2017-11-23T10:37:00.856Z,4.67
2017-11-23T10:39:03.439Z,3.97
2017-11-23T10:41:14.907Z,4.63
2017-11-23T10:43:16.832Z,4.43
2017-11-23T10:45:18.134Z,4.93
2017-11-23T10:47:20.361Z,4.43
2017-11-23T10:49:21.383Z,4.10
2017-11-23T10:51:22.814Z,4.17
2017-11-23T10:53:23.915Z,3.60
2017-11-23T10:55:26.024Z,4.13
2017-11-23T10:57:27.058Z,3.70
2017-11-23T10:59:28.151Z,3.97
2017-11-23T11:01:29.477Z,4.13
2017-11-23T11:03:31.474Z,3.77
2017-11-23T11:05:32.465Z,3.77
2017-11-23T11:07:33.466Z,4.00
2017-11-23T11:09:34.425Z,4.47
2017-11-23T11:11:35.453Z,3.20
2017-11-23T11:13:36.436Z,4.27
2017-11-23T11:15:37.429Z,3.57
2017-11-23T11:17:38.486Z,4.20
2017-11-23T11:19:39.445Z,3.90
2017-11-23T11:21:41.124Z,3.65
2017-11-23T11:23:42.570Z,4.23
2017-11-23T11:25:43.591Z,3.70
2017-11-23T11:27:44.701Z,3.50
2017-11-23T11:29:45.710Z,3.20
2017-11-23T11:31:46.718Z,4.57
2017-11-23T11:33:48.448Z,3.77
2017-11-23T11:35:49.655Z,3.77
2017-11-23T11:37:50.729Z,3.20
2017-11-23T11:39:51.840Z,3.93
2017-11-23T11:41:52.820Z,4.00
2017-11-23T11:43:54.157Z,4.80
2017-11-23T11:45:55.217Z,4.00
2017-11-23T11:47:56.262Z,3.83
2017-11-23T11:49:57.616Z,3.40
2017-11-23T11:52:00.914Z,4.13
2017-11-23T11:54:01.942Z,3.70
2017-11-23T11:56:03.917Z,3.70
2017-11-23T11:58:10.657Z,4.10
2017-11-23T12:00:11.697Z,3.67
2017-11-23T12:02:12.789Z,4.30
2017-11-23T12:04:13.922Z,3.80
2017-11-23T12:06:17.644Z,4.17
2017-11-23T12:08:18.894Z,3.73
2017-11-23T12:10:19.998Z,3.40
2017-11-23T12:12:23.592Z,3.07
2017-11-23T12:14:26.525Z,4.10
2017-11-23T12:16:28.409Z,3.27
2017-11-23T12:30:17.303Z,3.40
2017-11-23T12:32:18.405Z,3.27
2017-11-23T12:34:19.440Z,4.07
2017-11-23T12:36:20.580Z,3.80
2017-11-23T12:38:21.617Z,3.53
2017-11-23T12:40:22.597Z,3.60
2017-11-23T12:42:24.412Z,3.27
2017-11-23T12:44:27.646Z,3.57
2017-11-23T12:46:28.735Z,2.87
2017-11-23T12:48:29.744Z,3.70
2017-11-23T12:50:30.733Z,2.77
2017-11-23T12:52:31.722Z,2.90
2017-11-23T12:54:32.684Z,3.80
2017-11-23T12:56:33.664Z,3.63
2017-11-23T12:58:34.629Z,3.83
2017-11-23T13:00:35.615Z,3.03
2017-11-23T13:02:36.585Z,3.53
2017-11-23T13:04:37.554Z,3.17
2017-11-23T13:06:38.539Z,3.30
2017-11-23T13:08:40.240Z,3.37
2017-11-23T13:10:41.225Z,3.50
2017-11-23T13:12:42.221Z,3.20
2017-11-23T13:14:43.212Z,3.27
2017-11-23T13:16:44.177Z,3.50
2017-11-23T13:18:46.568Z,3.30
2017-11-23T13:20:47.548Z,3.77
2017-11-23T13:22:48.622Z,3.17
2017-11-23T13:24:49.777Z,3.23
2017-11-23T13:26:50.774Z,3.40
2017-11-23T13:28:51.777Z,3.43
2017-11-23T13:30:52.787Z,3.10
2017-11-23T13:32:53.772Z,3.60
2017-11-23T13:34:54.730Z,2.93
2017-11-23T13:36:55.668Z,3.50
2017-11-23T13:38:56.650Z,3.03
2017-11-23T13:40:57.660Z,3.27
2017-11-23T13:42:58.636Z,3.50
2017-11-23T13:44:59.669Z,3.67
2017-11-23T13:47:01.411Z,3.30
2017-11-23T13:49:02.400Z,3.13
2017-11-23T13:51:03.360Z,3.87
2017-11-23T13:53:04.341Z,3.77
2017-11-23T13:55:05.335Z,3.50
2017-11-23T13:57:06.439Z,2.93
2017-11-23T13:59:07.448Z,2.93
2017-11-23T14:01:08.424Z,3.03
2017-11-23T14:03:09.420Z,4.07
2017-11-23T14:05:11.118Z,3.37
2017-11-23T14:07:12.059Z,3.43
2017-11-23T14:09:13.039Z,4.07
2017-11-23T14:11:14.000Z,2.97
2017-11-23T14:13:15.728Z,3.67
2017-11-23T14:15:16.704Z,3.23
2017-11-23T14:17:17.727Z,2.97
2017-11-23T14:19:18.844Z,3.37
2017-11-23T14:21:19.845Z,4.17
2017-11-23T14:23:20.804Z,3.10
2017-11-23T14:25:21.826Z,3.43
2017-11-23T14:27:22.801Z,3.33
2017-11-23T14:29:24.579Z,3.33
2017-11-23T14:31:26.288Z,3.57
2017-11-23T14:33:27.260Z,2.60
2017-11-23T14:35:28.224Z,3.40
2017-11-23T14:37:29.215Z,2.83
2017-11-23T14:39:30.169Z,3.03
2017-11-23T14:41:31.148Z,3.30
2017-11-23T14:43:32.092Z,3.30
2017-11-23T14:45:33.065Z,2.87
2017-11-23T14:47:34.079Z,3.00
2017-11-23T14:49:35.059Z,3.27
2017-11-23T14:51:36.076Z,3.30
2017-11-23T14:53:37.043Z,3.10
2017-11-23T14:55:38.056Z,2.90
2017-11-23T14:57:39.071Z,3.60
2017-11-23T14:59:40.045Z,3.53
2017-11-23T15:01:41.041Z,3.60
2017-11-23T15:03:42.048Z,3.43
2017-11-23T15:05:43.029Z,3.80
2017-11-23T15:07:44.728Z,3.60
2017-11-23T15:09:45.680Z,3.30
2017-11-23T15:11:46.674Z,3.40
2017-11-23T15:13:47.663Z,2.97
2017-11-23T15:15:48.738Z,3.03
2017-11-23T15:17:49.756Z,3.53
2017-11-23T15:19:50.734Z,3.47
2017-11-23T15:21:51.741Z,3.10
2017-11-23T15:23:52.732Z,2.87
2017-11-23T15:25:53.704Z,2.90
2017-11-23T15:27:56.715Z,3.23
2017-11-23T15:29:57.710Z,2.77
2017-11-23T15:31:58.680Z,2.97
2017-11-23T15:33:59.659Z,2.87
2017-11-23T15:36:00.632Z,2.93
2017-11-23T15:38:01.581Z,2.97
2017-11-23T15:40:02.547Z,3.00
2017-11-23T15:42:03.536Z,2.80
2017-11-23T15:44:04.564Z,2.63
2017-11-23T15:46:05.599Z,2.63
2017-11-23T15:48:06.589Z,2.50
2017-11-23T15:50:07.827Z,2.70
2017-11-23T15:52:08.869Z,2.77
2017-11-23T15:54:09.913Z,3.40
2017-11-23T15:56:11.822Z,3.30
2017-11-23T15:58:12.859Z,3.77
2017-11-23T16:00:13.904Z,3.00
2017-11-23T16:02:15.043Z,3.13
2017-11-23T16:04:16.008Z,3.03
2017-11-23T16:06:16.984Z,2.77
2017-11-23T16:08:18.029Z,3.50
2017-11-23T16:10:19.165Z,2.73
2017-11-23T16:12:20.305Z,2.73
2017-11-23T16:14:21.323Z,2.63
2017-11-23T16:16:23.402Z,3.37
2017-11-23T16:18:24.447Z,3.67
2017-11-23T16:20:27.265Z,2.93
2017-11-23T16:22:28.321Z,2.90
2017-11-23T16:24:29.427Z,2.80
2017-11-23T16:26:31.177Z,2.33
2017-11-23T16:28:32.153Z,2.80
2017-11-23T16:30:34.466Z,3.20
2017-11-23T16:32:35.543Z,3.27
2017-11-23T16:34:36.641Z,2.83
2017-11-23T16:36:37.661Z,3.17
2017-11-23T16:41:22.049Z,2.90
2017-11-23T16:43:25.866Z,2.90
2017-11-23T16:45:32.983Z,3.07
2017-11-23T16:47:43.770Z,3.17
2017-11-23T16:50:04.810Z,3.70
2017-11-23T16:52:08.791Z,2.47
2017-11-23T16:54:15.837Z,2.43
2017-11-23T16:56:18.761Z,2.97
2017-11-23T16:58:35.476Z,3.40
2017-11-23T17:00:47.128Z,3.00
2017-11-23T17:02:53.053Z,3.00
2017-11-23T17:05:00.121Z,3.50
2017-11-23T17:07:07.199Z,3.40
2017-11-23T17:11:52.207Z,2.70
2017-11-23T17:13:59.137Z,3.37
2017-11-23T17:16:06.077Z,2.83
2017-11-23T17:20:55.147Z,2.97
2017-11-23T17:22:56.164Z,3.50
2017-11-23T17:24:57.205Z,3.63
2017-11-23T17:26:58.202Z,3.30
2017-11-23T17:28:59.217Z,3.57
2017-11-23T17:31:00.784Z,3.80
2017-11-23T17:33:01.784Z,2.40
2017-11-23T17:35:02.793Z,3.00
2017-11-23T17:37:03.772Z,3.57
2017-11-23T17:39:04.741Z,2.50
2017-11-23T17:43:16.844Z,2.40
2017-11-23T17:45:17.935Z,3.20
2017-11-23T17:47:18.900Z,3.27
2017-11-23T17:49:21.060Z,3.60
2017-11-23T17:51:22.033Z,2.60
2017-11-23T17:53:24.242Z,3.30
2017-11-23T17:55:25.289Z,3.03
2017-11-23T17:57:33.931Z,3.60
2017-11-23T17:59:34.989Z,4.57
2017-11-23T18:01:36.045Z,4.23
2017-11-23T18:03:38.142Z,4.00
2017-11-23T18:05:40.785Z,4.57
2017-11-23T18:07:41.858Z,3.70
2017-11-23T18:09:42.861Z,4.55
2017-11-23T18:11:44.613Z,4.30
2017-11-23T18:13:45.573Z,3.40
2017-11-23T18:15:46.553Z,3.43
2017-11-23T18:17:47.549Z,2.93
2017-11-23T18:19:48.780Z,2.70
2017-11-23T18:21:50.961Z,3.30
2017-11-23T18:23:51.988Z,2.90
2017-11-23T18:25:53.117Z,2.33
2017-11-23T18:27:54.189Z,2.80
2017-11-23T18:29:55.230Z,2.43
2017-11-23T18:31:56.290Z,2.73
2017-11-23T18:33:57.302Z,2.83
2017-11-23T18:35:58.308Z,2.10
2017-11-23T18:38:00.082Z,2.50
2017-11-23T18:40:02.067Z,2.60
2017-11-23T18:42:04.555Z,2.17
2017-11-23T18:44:05.545Z,2.30
2017-11-23T18:46:06.548Z,2.30
2017-11-23T18:48:07.630Z,2.30
2017-11-23T18:50:08.623Z,2.33
2017-11-23T18:52:09.638Z,2.40
2017-11-23T18:54:10.647Z,1.67
2017-11-23T18:56:11.628Z,2.30
2017-11-23T18:58:12.642Z,2.33
2017-11-23T19:00:13.673Z,2.47
2017-11-23T19:02:14.663Z,1.97
2017-11-23T19:04:15.621Z,2.10
2017-11-23T19:06:16.586Z,2.60
2017-11-23T19:08:17.639Z,2.33
2017-11-23T19:10:18.637Z,2.20
2017-11-23T19:12:21.165Z,2.70
2017-11-23T19:14:22.223Z,2.23
2017-11-23T19:16:23.226Z,2.00
2017-11-23T19:18:24.220Z,1.87
2017-11-23T19:20:25.213Z,2.20
2017-11-23T19:22:26.223Z,2.53
2017-11-23T19:24:27.288Z,2.10
2017-11-23T19:26:28.531Z,1.63
2017-11-23T19:28:29.619Z,1.83
2017-11-23T19:30:30.896Z,1.90
2017-11-23T19:32:32.077Z,2.20
2017-11-23T19:34:33.082Z,2.30
2017-11-23T19:36:35.046Z,2.60
2017-11-23T19:38:36.942Z,2.07
2017-11-23T19:40:38.033Z,2.03
2017-11-23T19:42:39.056Z,2.57
2017-11-23T19:44:40.107Z,2.37
2017-11-23T19:46:41.102Z,2.33
2017-11-23T19:48:42.736Z,2.70
2017-11-23T19:50:43.787Z,2.33
2017-11-23T19:52:44.838Z,2.33
2017-11-23T19:54:46.514Z,2.20
2017-11-23T19:56:47.771Z,2.27
2017-11-23T19:58:49.559Z,2.10
2017-11-23T20:00:50.679Z,2.50
2017-11-23T20:02:51.922Z,2.30
2017-11-23T20:04:53.051Z,2.10
2017-11-23T20:06:54.095Z,2.63
2017-11-23T20:08:55.092Z,2.53
2017-11-23T20:10:56.087Z,3.07
2017-11-23T20:12:57.150Z,2.30
2017-11-23T20:14:58.142Z,2.57
2017-11-23T20:16:59.138Z,2.70
2017-11-23T20:19:00.137Z,2.77
2017-11-23T20:21:01.158Z,2.30
2017-11-23T20:23:02.205Z,2.40
2017-11-23T20:25:03.288Z,2.67
2017-11-23T20:27:05.057Z,2.20
2017-11-23T20:29:06.057Z,2.47
2017-11-23T20:31:07.039Z,2.67
2017-11-23T20:33:07.994Z,2.43
2017-11-23T20:35:09.746Z,2.50
2017-11-23T20:37:10.760Z,2.90
2017-11-23T20:39:12.617Z,2.47
2017-11-23T20:41:13.876Z,2.80
2017-11-23T20:43:16.882Z,2.50
2017-11-23T20:45:17.921Z,2.40
2017-11-23T20:47:19.010Z,2.50
2017-11-23T20:49:20.764Z,3.27
2017-11-23T20:51:21.729Z,3.20
2017-11-23T20:53:22.755Z,2.80
2017-11-23T20:55:23.752Z,3.10
2017-11-23T20:57:25.478Z,2.97
2017-11-23T20:59:27.266Z,2.67
2017-11-23T21:01:28.322Z,2.63
2017-11-23T21:03:29.381Z,2.93
2017-11-23T21:05:31.361Z,3.00
2017-11-23T21:07:32.439Z,3.07
2017-11-23T21:09:34.477Z,3.40
2017-11-23T21:11:35.488Z,2.80
2017-11-23T21:13:36.484Z,3.37
2017-11-23T21:15:37.484Z,3.20
2017-11-23T21:17:38.511Z,3.40
2017-11-23T21:19:39.530Z,3.20
2017-11-23T21:21:40.537Z,3.20
2017-11-23T21:23:41.539Z,3.00
2017-11-23T21:26:03.813Z,3.43
2017-11-23T21:30:43.614Z,3.53
2017-11-23T21:32:44.915Z,3.60
2017-11-23T21:34:47.233Z,3.90
2017-11-23T21:43:47.672Z,3.53
2017-11-23T21:45:48.774Z,3.60
2017-11-23T21:47:50.104Z,4.10
2017-11-23T21:49:51.220Z,4.73
2017-11-23T21:51:52.652Z,4.80
2017-11-23T21:53:53.923Z,4.00
2017-11-23T21:55:54.920Z,3.93
2017-11-23T21:57:56.671Z,4.57
2017-11-23T21:59:57.887Z,4.00
2017-11-23T22:01:59.980Z,3.93
2017-11-23T22:04:01.033Z,4.87
2017-11-23T22:06:02.056Z,3.33
2017-11-23T22:08:03.279Z,2.93
2017-11-23T22:10:04.333Z,3.17
2017-11-23T22:12:06.335Z,3.60
2017-11-23T22:14:07.899Z,2.20
2017-11-23T22:16:10.198Z,2.53
2017-11-23T22:18:11.328Z,2.47
2017-11-23T22:20:12.445Z,2.43
2017-11-23T22:22:13.524Z,2.53
2017-11-23T22:24:14.637Z,3.20
2017-11-23T22:26:16.076Z,2.60
2017-11-23T22:28:17.993Z,2.70
2017-11-23T22:30:41.024Z,3.07
2017-11-23T22:32:42.414Z,2.90
2017-11-23T22:34:46.450Z,2.90
2017-11-23T22:36:47.516Z,2.40
2017-11-23T22:38:48.559Z,3.33
2017-11-23T22:40:50.651Z,2.70
2017-11-23T22:42:51.862Z,3.53
2017-11-23T22:44:54.852Z,3.80
2017-11-23T22:46:55.946Z,3.80
2017-11-23T22:48:56.998Z,2.90
2017-11-23T22:50:57.976Z,3.80
2017-11-23T22:52:59.706Z,4.20
2017-11-23T22:55:00.671Z,4.03
2017-11-23T22:57:01.889Z,3.87
2017-11-23T22:59:03.093Z,3.47
2017-11-23T23:01:04.135Z,3.70
2017-11-23T23:03:05.141Z,3.67
2017-11-23T23:05:06.215Z,3.90
2017-11-23T23:07:07.246Z,3.87
2017-11-23T23:09:08.931Z,4.60
2017-11-23T23:11:10.052Z,3.57
2017-11-23T23:13:11.185Z,3.60
2017-11-23T23:15:12.285Z,4.47
2017-11-23T23:17:13.266Z,3.50
2017-11-23T23:19:14.277Z,3.30
2017-11-23T23:21:15.337Z,4.20
2017-11-23T23:23:16.376Z,4.07
2017-11-23T23:25:17.430Z,3.80
2017-11-23T23:27:18.660Z,3.43
2017-11-23T23:29:19.718Z,3.60
2017-11-23T23:31:21.124Z,3.60
2017-11-23T23:33:22.557Z,4.03
2017-11-23T23:35:24.768Z,3.63
2017-11-23T23:37:25.810Z,3.90
2017-11-23T23:44:16.301Z,3.30
2017-11-23T23:46:17.893Z,3.57
2017-11-23T23:48:20.720Z,4.30
2017-11-23T23:50:21.813Z,3.80
2017-11-23T23:52:23.910Z,4.20
2017-11-23T23:54:24.909Z,4.10
2017-11-23T23:56:26.017Z,3.93
2017-11-23T23:58:27.062Z,3.50
